Neijiang, China
Current Conditions -  °F | °C
As of 4:00 AM on Sunday 26 Oct 2014 (Local Time) from ZUCK Reporting Station
Haze Haze  
Wind Chill: 66°   Ceiling: Unl
Heat Index: 66°   Visibility: 3mi
Dew Point: 59°   Wind: 4mph
Humidity: 78%   Direction: 40°NE
Pressure: 30.03"   Gusts: NA
Location:  29.58°N, 105.05°E
Report Text: ZUCK 252000Z 04002MPS 010V140 5000 BR NSC 19/15 Q1017 NOSIG
Loading
Personal Weather Stations






























Interactive Weather Map
Tropical Storm Tracking
New forecast layout! Learn more

10-Day Weather Forecast

Advertisements
Track Severe Weather on mobile